createdAt,value
2023-02-24T00:01:24.846Z,23.03
2023-02-24T00:04:00.482Z,26.60
2023-02-24T00:06:40.171Z,24.87
2023-02-24T00:09:27.269Z,26.33
2023-02-24T00:12:12.681Z,26.90
2023-02-24T00:14:47.528Z,25.33
2023-02-24T00:17:27.615Z,25.73
2023-02-24T00:20:05.551Z,27.77
2023-02-24T00:22:41.480Z,28.73
2023-02-24T00:25:16.501Z,26.57
2023-02-24T00:27:53.269Z,25.67
2023-02-24T00:30:29.706Z,24.93
2023-02-24T00:33:06.361Z,28.57
2023-02-24T00:35:41.289Z,30.70
2023-02-24T00:38:17.193Z,26.80
2023-02-24T00:40:52.077Z,28.30
2023-02-24T00:43:27.188Z,31.87
2023-02-24T00:46:02.541Z,27.97
2023-02-24T00:48:42.259Z,38.53
2023-02-24T00:51:23.435Z,29.10
2023-02-24T00:53:58.375Z,32.90
2023-02-24T00:56:35.081Z,27.07
2023-02-24T00:59:13.002Z,25.10
2023-02-24T01:01:50.459Z,27.03
2023-02-24T01:04:25.485Z,29.03
2023-02-24T01:07:00.626Z,30.07
2023-02-24T01:09:35.581Z,27.20
2023-02-24T01:12:38.579Z,27.60
2023-02-24T01:15:13.507Z,26.80
2023-02-24T01:17:48.502Z,28.10
2023-02-24T01:20:23.495Z,24.13
2023-02-24T01:22:58.652Z,27.57
2023-02-24T01:25:33.536Z,24.33
2023-02-24T01:28:11.057Z,24.77
2023-02-24T01:30:46.259Z,28.47
2023-02-24T01:33:21.811Z,26.17
2023-02-24T01:35:57.061Z,22.20
2023-02-24T01:38:31.951Z,25.83
2023-02-24T01:41:07.055Z,23.93
2023-02-24T01:44:09.689Z,21.13
2023-02-24T01:46:48.332Z,26.07
2023-02-24T01:49:34.176Z,21.90
2023-02-24T01:52:17.424Z,29.10
2023-02-24T01:54:58.708Z,27.60
2023-02-24T01:57:36.786Z,20.20
2023-02-24T02:00:33.640Z,24.57
2023-02-24T02:03:15.901Z,28.17
2023-02-24T02:05:52.935Z,27.17
2023-02-24T02:08:29.625Z,24.33
2023-02-24T02:11:10.169Z,28.50
2023-02-24T02:13:46.768Z,25.40
2023-02-24T02:16:32.786Z,23.20
2023-02-24T02:19:32.189Z,26.10
2023-02-24T02:22:43.073Z,25.37
2023-02-24T02:26:00.233Z,28.07
2023-02-24T02:29:10.898Z,25.10
2023-02-24T02:32:23.823Z,27.00
2023-02-24T02:35:31.699Z,31.67
2023-02-24T02:38:38.547Z,26.20
2023-02-24T02:41:43.565Z,26.40
2023-02-24T02:44:23.995Z,29.00
2023-02-24T02:47:13.376Z,27.73
2023-02-24T02:50:00.654Z,28.10
2023-02-24T02:52:47.906Z,29.57
2023-02-24T02:55:47.058Z,28.90
2023-02-24T02:58:28.040Z,30.77
2023-02-24T03:01:07.187Z,28.40
2023-02-24T03:03:51.996Z,31.80
2023-02-24T03:06:34.610Z,23.40
2023-02-24T03:09:19.426Z,30.73
2023-02-24T03:12:08.327Z,28.63
2023-02-24T03:14:52.110Z,26.67
2023-02-24T03:17:41.374Z,29.23
2023-02-24T03:20:56.976Z,26.30
2023-02-24T03:23:36.688Z,26.13
2023-02-24T03:26:37.665Z,26.10
2023-02-24T03:29:37.548Z,28.77
2023-02-24T03:32:20.457Z,30.53
2023-02-24T03:35:09.423Z,26.77
2023-02-24T03:37:47.322Z,31.23
2023-02-24T03:40:28.602Z,27.93
2023-02-24T03:43:30.372Z,31.63
2023-02-24T03:46:06.671Z,30.43
2023-02-24T03:48:50.153Z,28.23
2023-02-24T03:51:26.475Z,32.13
2023-02-24T03:54:44.500Z,33.70
2023-02-24T03:58:01.001Z,26.93
2023-02-24T04:00:57.100Z,31.53
2023-02-24T04:04:09.486Z,28.97
2023-02-24T04:06:56.334Z,29.30
2023-02-24T04:09:50.580Z,34.87
2023-02-24T04:12:37.699Z,31.90
2023-02-24T04:15:43.608Z,31.80
2023-02-24T04:18:24.732Z,32.80
2023-02-24T04:21:03.506Z,35.93
2023-02-24T04:23:43.162Z,35.10
2023-02-24T04:26:20.687Z,41.53
2023-02-24T04:28:56.588Z,37.07
2023-02-24T04:31:32.972Z,35.27
2023-02-24T04:34:09.523Z,39.90
2023-02-24T04:36:50.546Z,39.03
2023-02-24T04:39:26.404Z,40.57
2023-02-24T04:42:06.031Z,39.30
2023-02-24T04:44:42.804Z,40.53
2023-02-24T04:47:17.748Z,40.67
2023-02-24T04:49:54.972Z,42.57
2023-02-24T04:52:30.208Z,39.43
2023-02-24T04:55:10.097Z,43.73
2023-02-24T04:57:46.009Z,42.37
2023-02-24T05:00:22.504Z,46.53
2023-02-24T05:02:57.599Z,39.87
2023-02-24T05:05:35.758Z,47.80
2023-02-24T05:08:11.769Z,46.67
2023-02-24T05:10:47.567Z,48.03
2023-02-24T05:13:31.641Z,47.77
2023-02-24T05:16:09.049Z,46.73
2023-02-24T05:18:47.311Z,50.77
2023-02-24T05:21:37.175Z,49.50
2023-02-24T05:24:12.053Z,49.70
2023-02-24T05:26:47.094Z,52.60
2023-02-24T05:29:22.309Z,49.10
2023-02-24T05:31:59.966Z,48.83
2023-02-24T05:34:35.133Z,44.37
2023-02-24T05:37:10.710Z,50.27
2023-02-24T05:39:45.840Z,46.23
2023-02-24T05:42:20.696Z,50.23
2023-02-24T05:44:55.543Z,49.40
2023-02-24T05:47:30.422Z,49.87
2023-02-24T05:50:06.204Z,51.33
2023-02-24T05:52:41.113Z,50.07
2023-02-24T05:55:16.325Z,46.43
2023-02-24T05:57:53.118Z,43.97
2023-02-24T06:00:28.065Z,51.53
2023-02-24T06:03:08.392Z,47.10
2023-02-24T06:05:43.953Z,50.10
2023-02-24T06:08:18.795Z,53.57
2023-02-24T06:10:53.746Z,48.53
2023-02-24T06:13:28.599Z,53.63
2023-02-24T06:16:06.170Z,55.17
2023-02-24T06:18:42.643Z,52.50
2023-02-24T06:21:18.446Z,53.83
2023-02-24T06:23:53.406Z,56.70
2023-02-24T06:26:33.610Z,57.33
2023-02-24T06:29:15.736Z,57.13
2023-02-24T06:31:51.356Z,59.37
2023-02-24T06:34:27.696Z,60.73
2023-02-24T06:37:04.220Z,62.53
2023-02-24T06:39:40.323Z,63.53
2023-02-24T06:42:15.168Z,64.47
2023-02-24T06:44:50.333Z,65.13
2023-02-24T06:47:26.875Z,64.80
2023-02-24T06:50:01.925Z,66.13
2023-02-24T06:52:37.040Z,61.93
2023-02-24T06:55:25.329Z,67.23
2023-02-24T06:58:04.334Z,61.53
2023-02-24T07:00:39.352Z,64.43
2023-02-24T07:03:17.142Z,54.37
2023-02-24T07:06:10.797Z,58.43
2023-02-24T07:08:47.042Z,58.33
2023-02-24T07:11:22.411Z,56.00
2023-02-24T07:13:59.387Z,56.97
2023-02-24T07:16:35.729Z,52.30
2023-02-24T07:19:15.412Z,58.30
2023-02-24T07:21:52.605Z,60.93
2023-02-24T07:24:33.604Z,52.33
2023-02-24T07:27:18.121Z,56.30
2023-02-24T07:29:53.896Z,54.53
2023-02-24T07:32:30.442Z,54.83
2023-02-24T07:35:05.877Z,59.60
2023-02-24T07:37:41.619Z,56.90
2023-02-24T07:40:17.450Z,58.00
2023-02-24T07:42:54.130Z,59.17
2023-02-24T07:45:29.675Z,48.87
2023-02-24T07:48:04.604Z,53.87
2023-02-24T07:50:42.041Z,50.07
2023-02-24T07:53:18.785Z,56.40
2023-02-24T07:55:54.297Z,53.20
2023-02-24T07:58:29.150Z,59.87
2023-02-24T08:01:08.769Z,50.83
2023-02-24T08:03:44.909Z,47.00
2023-02-24T08:06:37.613Z,53.47
2023-02-24T08:09:20.751Z,52.23
2023-02-24T08:11:56.445Z,51.10
2023-02-24T08:14:34.850Z,51.80
2023-02-24T08:17:10.914Z,48.97
2023-02-24T08:19:49.116Z,50.37
2023-02-24T08:22:27.630Z,52.87
2023-02-24T08:25:08.764Z,50.60
2023-02-24T08:27:44.841Z,49.40
2023-02-24T08:30:25.609Z,47.23
2023-02-24T08:33:00.517Z,44.20
2023-02-24T08:35:38.621Z,50.03
2023-02-24T08:38:23.728Z,53.70
2023-02-24T08:41:04.850Z,45.97
2023-02-24T08:43:40.990Z,56.93
2023-02-24T08:46:21.241Z,44.80
2023-02-24T08:49:00.927Z,44.40
2023-02-24T08:51:43.608Z,48.20
2023-02-24T08:54:27.241Z,44.10
2023-02-24T08:57:08.229Z,46.20
2023-02-24T08:59:49.802Z,44.07
2023-02-24T09:02:29.485Z,38.80
2023-02-24T09:05:13.153Z,43.27
2023-02-24T09:07:54.643Z,43.83
2023-02-24T09:10:29.574Z,40.47
2023-02-24T09:13:08.578Z,46.40
2023-02-24T09:15:44.172Z,44.40
2023-02-24T09:18:19.017Z,44.57
2023-02-24T09:20:56.747Z,46.47
2023-02-24T09:23:45.806Z,44.00
2023-02-24T09:26:20.786Z,46.73
2023-02-24T09:28:55.875Z,43.50
2023-02-24T09:31:40.698Z,57.03
2023-02-24T09:34:18.422Z,44.93
2023-02-24T09:37:02.996Z,42.60
2023-02-24T09:39:55.902Z,40.60
2023-02-24T09:42:46.241Z,35.43
2023-02-24T09:45:33.373Z,35.23
2023-02-24T09:48:23.314Z,37.50
2023-02-24T09:51:10.488Z,33.00
2023-02-24T09:53:52.502Z,37.23
2023-02-24T09:56:37.117Z,38.07
2023-02-24T10:00:00.815Z,29.87
2023-02-24T10:02:59.986Z,31.97
2023-02-24T10:06:12.209Z,27.00
2023-02-24T10:09:11.374Z,26.40
2023-02-24T10:12:05.820Z,25.37
2023-02-24T10:15:18.864Z,22.90
2023-02-24T10:17:57.454Z,23.37
2023-02-24T10:20:45.647Z,24.07
2023-02-24T10:23:56.432Z,21.20
2023-02-24T10:26:59.977Z,24.87
2023-02-24T10:30:19.714Z,23.30
2023-02-24T10:32:58.757Z,33.37
2023-02-24T10:35:36.654Z,28.50
2023-02-24T10:38:11.653Z,28.60
2023-02-24T10:40:56.635Z,36.50
2023-02-24T10:43:33.746Z,44.20
2023-02-24T10:46:39.998Z,41.40
2023-02-24T10:49:17.271Z,41.53
2023-02-24T10:51:53.439Z,46.93
2023-02-24T10:54:44.779Z,46.47
2023-02-24T10:57:38.258Z,50.47
2023-02-24T11:00:32.741Z,42.00
2023-02-24T11:03:19.477Z,43.10
2023-02-24T11:06:08.247Z,44.10
2023-02-24T11:08:48.733Z,41.87
2023-02-24T11:11:54.392Z,47.40
2023-02-24T11:14:48.165Z,51.73
2023-02-24T11:17:27.104Z,48.17
2023-02-24T11:20:13.370Z,44.87
2023-02-24T11:22:52.404Z,40.60
2023-02-24T11:25:36.971Z,45.97
2023-02-24T11:28:33.003Z,46.10
2023-02-24T11:31:29.483Z,46.67
2023-02-24T11:34:29.064Z,51.57
2023-02-24T11:37:34.394Z,41.73
2023-02-24T11:40:16.250Z,48.13
2023-02-24T11:43:05.040Z,45.83
2023-02-24T11:45:54.260Z,42.47
2023-02-24T11:48:39.562Z,37.17
2023-02-24T11:51:23.382Z,41.90
2023-02-24T11:54:06.407Z,45.67
2023-02-24T11:56:53.598Z,39.77
2023-02-24T12:00:13.355Z,44.80
2023-02-24T12:02:55.514Z,37.53
2023-02-24T12:05:43.802Z,44.30
2023-02-24T12:08:33.213Z,39.13
2023-02-24T12:11:33.684Z,41.60
2023-02-24T12:14:34.615Z,38.90
2023-02-24T12:17:40.060Z,45.83
2023-02-24T12:20:42.095Z,33.57
2023-02-24T12:23:23.047Z,39.13
2023-02-24T12:26:20.837Z,41.43
2023-02-24T12:29:16.219Z,44.47
2023-02-24T12:32:15.803Z,43.90
2023-02-24T12:35:19.850Z,35.37
2023-02-24T12:38:32.324Z,39.43
2023-02-24T12:41:30.354Z,32.73
2023-02-24T12:44:30.317Z,30.57
2023-02-24T12:47:12.812Z,35.27
2023-02-24T12:50:06.798Z,32.13
2023-02-24T12:52:53.981Z,37.77
2023-02-24T12:55:51.829Z,34.50
2023-02-24T12:58:33.090Z,33.80
2023-02-24T13:01:26.670Z,34.90
2023-02-24T13:04:34.621Z,35.17
2023-02-24T13:07:17.354Z,31.47
2023-02-24T13:10:08.167Z,31.17
2023-02-24T13:13:04.128Z,25.37
2023-02-24T13:15:52.325Z,30.50
2023-02-24T13:18:31.826Z,29.10
2023-02-24T13:21:10.135Z,32.40
2023-02-24T13:24:01.004Z,38.87
2023-02-24T13:26:36.001Z,38.40
2023-02-24T13:29:13.836Z,36.87
2023-02-24T13:31:53.212Z,36.30
2023-02-24T13:34:42.011Z,39.07
2023-02-24T13:37:37.637Z,33.73
2023-02-24T13:40:18.266Z,33.13
2023-02-24T13:42:57.766Z,40.40
2023-02-24T13:45:39.776Z,37.97
2023-02-24T13:48:27.482Z,32.33
2023-02-24T13:51:21.418Z,33.17
2023-02-24T13:54:29.754Z,35.87
2023-02-24T13:57:08.993Z,36.90
2023-02-24T14:00:09.971Z,32.80
2023-02-24T14:02:46.866Z,32.87
2023-02-24T14:05:27.057Z,30.60
2023-02-24T14:08:04.694Z,26.70
2023-02-24T14:10:45.872Z,26.70
2023-02-24T14:13:27.919Z,24.10
2023-02-24T14:16:09.214Z,28.20
2023-02-24T14:19:01.641Z,22.17
2023-02-24T14:21:36.556Z,31.53
2023-02-24T14:24:13.189Z,31.30
2023-02-24T14:26:55.936Z,26.37
2023-02-24T14:29:43.634Z,26.80
2023-02-24T14:32:26.246Z,29.57
2023-02-24T14:35:01.225Z,28.30
2023-02-24T14:37:36.398Z,25.57
2023-02-24T14:40:16.002Z,26.90
2023-02-24T14:42:51.765Z,26.97
2023-02-24T14:45:29.110Z,34.97
2023-02-24T14:48:04.146Z,24.20
2023-02-24T14:50:39.075Z,24.07
2023-02-24T14:53:18.661Z,24.07
2023-02-24T14:55:57.051Z,23.90
2023-02-24T14:58:50.747Z,26.40
2023-02-24T15:01:34.050Z,25.90
2023-02-24T15:04:37.638Z,25.87
2023-02-24T15:07:24.497Z,25.90
2023-02-24T15:10:01.214Z,22.73
2023-02-24T15:12:47.583Z,19.40
2023-02-24T15:15:28.589Z,25.40
2023-02-24T15:18:14.455Z,24.70
2023-02-24T15:21:07.258Z,22.87
2023-02-24T15:23:42.098Z,23.90
2023-02-24T15:26:35.227Z,18.67
2023-02-24T15:29:25.711Z,20.13
2023-02-24T15:32:04.149Z,19.87
2023-02-24T15:34:39.211Z,16.97
2023-02-24T15:37:28.477Z,17.20
2023-02-24T15:40:20.893Z,19.70
2023-02-24T15:43:10.686Z,17.07
2023-02-24T15:45:46.556Z,17.33
2023-02-24T15:48:26.797Z,17.33
2023-02-24T15:51:05.643Z,18.23
2023-02-24T15:53:40.579Z,16.00
2023-02-24T15:56:17.175Z,23.37
2023-02-24T15:58:52.583Z,17.90
2023-02-24T16:01:27.560Z,21.23
2023-02-24T16:04:04.778Z,17.93
2023-02-24T16:06:53.919Z,20.77
2023-02-24T16:09:37.538Z,18.47
2023-02-24T16:12:21.759Z,20.83
2023-02-24T16:15:02.482Z,21.20
2023-02-24T16:17:40.861Z,18.53
2023-02-24T16:20:28.422Z,20.40
2023-02-24T16:23:05.467Z,19.40
2023-02-24T16:25:45.487Z,21.47
2023-02-24T16:28:22.565Z,20.03
2023-02-24T16:30:57.480Z,18.00
2023-02-24T16:33:48.070Z,20.20
2023-02-24T16:36:28.777Z,20.27
2023-02-24T16:39:05.093Z,21.30
2023-02-24T16:41:40.598Z,18.43
2023-02-24T16:44:15.483Z,22.10
2023-02-24T16:46:51.630Z,19.77
2023-02-24T16:49:26.457Z,21.30
2023-02-24T16:52:01.331Z,21.23
2023-02-24T16:54:36.320Z,19.60
2023-02-24T16:57:11.732Z,25.37
2023-02-24T16:59:46.633Z,21.47
2023-02-24T17:02:24.914Z,27.50
2023-02-24T17:04:59.730Z,20.57
2023-02-24T17:07:39.184Z,18.00
2023-02-24T17:10:14.737Z,16.93
2023-02-24T17:12:50.118Z,20.00
2023-02-24T17:15:25.646Z,24.67
2023-02-24T17:18:00.581Z,22.97
2023-02-24T17:20:38.765Z,22.43
2023-02-24T17:23:13.678Z,20.43
2023-02-24T17:25:56.465Z,20.93
2023-02-24T17:28:32.441Z,17.93
2023-02-24T17:31:07.623Z,21.17
2023-02-24T17:33:42.642Z,18.60
2023-02-24T17:36:17.559Z,18.60
2023-02-24T17:38:53.011Z,16.90
2023-02-24T17:41:27.910Z,21.23
2023-02-24T17:44:02.907Z,17.53
2023-02-24T17:46:38.072Z,18.50
2023-02-24T17:49:13.481Z,14.27
2023-02-24T17:51:48.584Z,14.87
2023-02-24T17:54:23.428Z,17.90
2023-02-24T17:56:58.318Z,16.40
2023-02-24T17:59:33.155Z,14.40
2023-02-24T18:02:10.821Z,15.97
2023-02-24T18:04:45.762Z,11.30
2023-02-24T18:07:25.054Z,12.63
2023-02-24T18:10:00.193Z,15.73
2023-02-24T18:12:35.176Z,9.80
2023-02-24T18:15:10.937Z,11.47
2023-02-24T18:17:46.240Z,11.27
2023-02-24T18:20:21.271Z,10.57
2023-02-24T18:22:56.172Z,19.33
2023-02-24T18:25:31.108Z,11.43
2023-02-24T18:28:06.415Z,13.93
2023-02-24T18:30:41.381Z,13.00
2023-02-24T18:33:16.446Z,15.00
2023-02-24T18:35:59.771Z,12.13
2023-02-24T18:38:34.871Z,15.97
2023-02-24T18:41:23.248Z,13.50
2023-02-24T18:43:59.258Z,14.83
2023-02-24T18:46:34.480Z,15.17
2023-02-24T18:49:10.205Z,14.20
2023-02-24T18:51:46.445Z,13.80
2023-02-24T18:54:21.450Z,16.90
2023-02-24T18:56:56.433Z,14.30
2023-02-24T18:59:31.507Z,14.67
2023-02-24T19:02:06.577Z,20.50
2023-02-24T19:04:41.517Z,18.97
2023-02-24T19:07:16.736Z,18.23
2023-02-24T19:09:51.843Z,18.87
2023-02-24T19:12:26.725Z,22.20
2023-02-24T19:15:02.773Z,18.27
2023-02-24T19:17:38.327Z,16.10
2023-02-24T19:20:16.442Z,21.90
2023-02-24T19:22:51.798Z,21.07
2023-02-24T19:25:26.911Z,19.73
2023-02-24T19:28:01.839Z,16.40
2023-02-24T19:30:39.953Z,16.13
2023-02-24T19:33:15.892Z,18.27
2023-02-24T19:35:53.225Z,20.37
2023-02-24T19:38:28.438Z,19.13
2023-02-24T19:41:03.707Z,21.23
2023-02-24T19:43:41.686Z,19.67
2023-02-24T19:46:17.642Z,20.07
2023-02-24T19:48:52.628Z,21.23
2023-02-24T19:51:28.291Z,22.43
2023-02-24T19:54:05.766Z,19.53
2023-02-24T19:56:40.835Z,20.90
2023-02-24T19:59:16.446Z,16.40
2023-02-24T20:01:52.345Z,26.83
2023-02-24T20:04:27.307Z,23.60
2023-02-24T20:07:02.264Z,23.10
2023-02-24T20:09:37.641Z,20.67
2023-02-24T20:12:12.604Z,24.90
2023-02-24T20:14:47.434Z,20.77
2023-02-24T20:17:22.646Z,20.93
2023-02-24T20:19:57.529Z,22.00
2023-02-24T20:22:32.465Z,21.20
2023-02-24T20:25:08.383Z,25.67
2023-02-24T20:27:43.550Z,22.53
2023-02-24T20:30:18.699Z,21.50
2023-02-24T20:32:54.052Z,25.20
2023-02-24T20:35:30.409Z,19.70
2023-02-24T20:38:05.446Z,22.10
2023-02-24T20:40:40.490Z,25.07
2023-02-24T20:43:15.402Z,20.73
2023-02-24T20:45:50.299Z,22.07
2023-02-24T20:48:26.257Z,28.10
2023-02-24T20:51:04.956Z,23.63
2023-02-24T20:53:55.894Z,19.70
2023-02-24T20:56:36.380Z,23.30
2023-02-24T20:59:18.905Z,21.67
2023-02-24T21:01:54.917Z,23.33
2023-02-24T21:04:29.947Z,21.30
2023-02-24T21:07:04.934Z,21.63
2023-02-24T21:09:39.894Z,9.57
2023-02-24T21:12:14.754Z,6.80
2023-02-24T21:14:49.661Z,4.93
2023-02-24T21:17:24.659Z,5.60
2023-02-24T21:20:01.562Z,7.13
2023-02-24T21:22:39.093Z,2.40
2023-02-24T21:25:14.038Z,2.53
2023-02-24T21:27:48.939Z,2.10
2023-02-24T21:30:23.815Z,2.17
2023-02-24T21:32:58.780Z,2.27
2023-02-24T21:35:33.844Z,5.90
2023-02-24T21:38:09.352Z,4.33
2023-02-24T21:40:45.099Z,2.33
2023-02-24T21:43:21.637Z,2.40
2023-02-24T21:46:00.830Z,3.67
2023-02-24T21:48:36.948Z,3.10
2023-02-24T21:51:14.085Z,2.97
2023-02-24T21:53:49.664Z,3.57
2023-02-24T21:56:28.225Z,3.20
2023-02-24T21:59:06.981Z,3.00
2023-02-24T22:01:44.373Z,4.33
2023-02-24T22:04:20.111Z,4.23
2023-02-24T22:06:54.998Z,3.90
2023-02-24T22:09:30.767Z,5.47
2023-02-24T22:12:06.473Z,5.70
2023-02-24T22:14:41.341Z,5.50
2023-02-24T22:17:16.214Z,4.33
2023-02-24T22:19:51.338Z,4.70
2023-02-24T22:22:26.345Z,7.00
2023-02-24T22:25:01.392Z,6.97
2023-02-24T22:27:36.588Z,4.73
2023-02-24T22:30:12.044Z,5.77
2023-02-24T22:32:47.156Z,5.40
2023-02-24T22:35:22.066Z,8.27
2023-02-24T22:37:57.314Z,6.50
2023-02-24T22:40:32.361Z,7.03
2023-02-24T22:43:07.502Z,7.83
2023-02-24T22:45:42.507Z,7.53
2023-02-24T22:48:17.538Z,7.43
2023-02-24T22:50:56.475Z,5.43
2023-02-24T22:53:34.670Z,5.63
2023-02-24T22:56:12.914Z,5.90
2023-02-24T22:58:48.058Z,3.97
2023-02-24T23:01:30.577Z,6.43
2023-02-24T23:04:11.087Z,9.53
2023-02-24T23:06:47.531Z,5.33
2023-02-24T23:09:22.811Z,4.17
2023-02-24T23:11:57.760Z,4.50
2023-02-24T23:14:32.774Z,5.50
2023-02-24T23:17:08.570Z,6.07
2023-02-24T23:19:43.723Z,8.30
2023-02-24T23:22:19.099Z,8.70
2023-02-24T23:24:54.097Z,5.20
2023-02-24T23:27:29.038Z,5.43
2023-02-24T23:30:09.665Z,5.43
2023-02-24T23:32:44.695Z,5.37
2023-02-24T23:35:19.668Z,6.50
2023-02-24T23:37:54.834Z,4.20
2023-02-24T23:40:32.191Z,3.73
2023-02-24T23:43:13.045Z,4.43
2023-02-24T23:45:47.984Z,4.17
2023-02-24T23:48:24.180Z,3.80
2023-02-24T23:51:02.486Z,7.10
2023-02-24T23:53:43.708Z,4.57
2023-02-24T23:56:25.662Z,4.30
2023-02-24T23:59:00.570Z,5.73
